Abralaite, Argentina
Current Conditions -  °F | °C
As of 9:00 PM on Saturday 25 Oct 2014 (Local Time) from SASJ Reporting Station
Clear Clear  
Wind Chill: 84°   Ceiling: Unl
Heat Index: 84°   Visibility: 6mi
Dew Point: 54°   Wind: 2mph
Humidity: 35%   Direction: 50°NE
Pressure: 29.88"   Gusts: NA
Location:  23.2°S, 65.74°W
Report Text: SASJ 260000Z 05002KT CAVOK 29/12 Q1012
Loading
Personal Weather Stations






























Interactive Weather Map New forecast layout! Learn more

10-Day Weather Forecast

Advertisements
Track Severe Weather on mobile